sensor_id;sensor_type;location;lat;lon;timestamp;P1;durP1;ratioP1;P2;durP2;ratioP2
61038;SDS011;46919;45.816;3.104;2022-11-23T00:00:34;8.23;;;4.32;;
61038;SDS011;46919;45.816;3.104;2022-11-23T00:03:00;8.18;;;3.92;;
61038;SDS011;46919;45.816;3.104;2022-11-23T00:05:27;8.65;;;4.18;;
61038;SDS011;46919;45.816;3.104;2022-11-23T00:07:53;8.27;;;4.28;;
61038;SDS011;46919;45.816;3.104;2022-11-23T00:10:19;9.85;;;4.35;;
61038;SDS011;46919;45.816;3.104;2022-11-23T00:12:45;8.95;;;5.00;;
61038;SDS011;46919;45.816;3.104;2022-11-23T00:15:11;8.13;;;4.70;;
61038;SDS011;46919;45.816;3.104;2022-11-23T00:17:37;10.45;;;4.75;;
61038;SDS011;46919;45.816;3.104;2022-11-23T00:20:04;8.77;;;4.63;;
61038;SDS011;46919;45.816;3.104;2022-11-23T00:22:30;14.73;;;8.05;;
61038;SDS011;46919;45.816;3.104;2022-11-23T00:24:55;19.42;;;11.10;;
61038;SDS011;46919;45.816;3.104;2022-11-23T00:27:20;9.05;;;4.35;;
61038;SDS011;46919;45.816;3.104;2022-11-23T00:29:46;5.68;;;3.08;;
61038;SDS011;46919;45.816;3.104;2022-11-23T00:32:11;5.25;;;2.70;;
61038;SDS011;46919;45.816;3.104;2022-11-23T00:34:36;4.45;;;2.42;;
61038;SDS011;46919;45.816;3.104;2022-11-23T00:37:02;6.50;;;2.90;;
61038;SDS011;46919;45.816;3.104;2022-11-23T00:39:27;4.15;;;1.70;;
61038;SDS011;46919;45.816;3.104;2022-11-23T00:41:53;3.05;;;1.75;;
61038;SDS011;46919;45.816;3.104;2022-11-23T00:44:18;3.20;;;2.13;;
61038;SDS011;46919;45.816;3.104;2022-11-23T00:46:43;3.15;;;1.60;;
61038;SDS011;46919;45.816;3.104;2022-11-23T00:49:09;2.70;;;1.60;;
61038;SDS011;46919;45.816;3.104;2022-11-23T00:51:35;4.13;;;1.90;;
61038;SDS011;46919;45.816;3.104;2022-11-23T00:54:01;3.80;;;1.83;;
61038;SDS011;46919;45.816;3.104;2022-11-23T00:56:29;5.88;;;2.70;;
61038;SDS011;46919;45.816;3.104;2022-11-23T00:58:56;6.32;;;3.40;;
61038;SDS011;46919;45.816;3.104;2022-11-23T01:01:24;5.13;;;3.22;;
61038;SDS011;46919;45.816;3.104;2022-11-23T01:03:55;7.28;;;3.65;;
61038;SDS011;46919;45.816;3.104;2022-11-23T01:06:26;8.02;;;4.30;;
61038;SDS011;46919;45.816;3.104;2022-11-23T01:08:54;7.55;;;4.50;;
61038;SDS011;46919;45.816;3.104;2022-11-23T01:11:23;8.20;;;4.40;;
61038;SDS011;46919;45.816;3.104;2022-11-23T01:13:49;7.20;;;3.63;;
61038;SDS011;46919;45.816;3.104;2022-11-23T01:16:16;6.47;;;4.07;;
61038;SDS011;46919;45.816;3.104;2022-11-23T01:18:46;7.57;;;4.25;;
61038;SDS011;46919;45.816;3.104;2022-11-23T01:21:12;8.02;;;4.80;;
61038;SDS011;46919;45.816;3.104;2022-11-23T01:23:37;6.10;;;3.88;;
61038;SDS011;46919;45.816;3.104;2022-11-23T01:26:04;5.88;;;3.75;;
61038;SDS011;46919;45.816;3.104;2022-11-23T01:28:31;6.57;;;3.90;;
61038;SDS011;46919;45.816;3.104;2022-11-23T01:31:03;6.07;;;3.97;;
61038;SDS011;46919;45.816;3.104;2022-11-23T01:33:29;6.18;;;3.97;;
61038;SDS011;46919;45.816;3.104;2022-11-23T01:35:54;5.70;;;3.67;;
61038;SDS011;46919;45.816;3.104;2022-11-23T01:38:20;6.57;;;3.60;;
61038;SDS011;46919;45.816;3.104;2022-11-23T01:40:45;4.70;;;3.00;;
61038;SDS011;46919;45.816;3.104;2022-11-23T01:43:14;5.10;;;3.00;;
61038;SDS011;46919;45.816;3.104;2022-11-23T01:46:03;5.40;;;3.00;;
61038;SDS011;46919;45.816;3.104;2022-11-23T01:48:38;4.78;;;2.58;;
61038;SDS011;46919;45.816;3.104;2022-11-23T01:51:20;3.28;;;2.08;;
61038;SDS011;46919;45.816;3.104;2022-11-23T01:53:50;2.10;;;1.23;;
61038;SDS011;46919;45.816;3.104;2022-11-23T01:56:22;2.15;;;0.88;;
61038;SDS011;46919;45.816;3.104;2022-11-23T02:01:20;1.83;;;0.90;;
61038;SDS011;46919;45.816;3.104;2022-11-23T02:03:46;1.80;;;0.90;;
61038;SDS011;46919;45.816;3.104;2022-11-23T02:06:14;2.42;;;0.80;;
61038;SDS011;46919;45.816;3.104;2022-11-23T02:08:42;2.22;;;0.93;;
61038;SDS011;46919;45.816;3.104;2022-11-23T02:11:08;3.47;;;1.30;;
61038;SDS011;46919;45.816;3.104;2022-11-23T02:13:36;3.83;;;2.70;;
61038;SDS011;46919;45.816;3.104;2022-11-23T02:16:02;4.43;;;3.08;;
61038;SDS011;46919;45.816;3.104;2022-11-23T02:18:28;3.95;;;2.45;;
61038;SDS011;46919;45.816;3.104;2022-11-23T02:20:56;2.42;;;1.50;;
61038;SDS011;46919;45.816;3.104;2022-11-23T02:23:37;2.78;;;1.13;;
61038;SDS011;46919;45.816;3.104;2022-11-23T02:26:28;2.22;;;1.40;;
61038;SDS011;46919;45.816;3.104;2022-11-23T02:28:57;2.22;;;1.25;;
61038;SDS011;46919;45.816;3.104;2022-11-23T02:31:31;1.70;;;1.10;;
61038;SDS011;46919;45.816;3.104;2022-11-23T02:33:57;1.63;;;1.10;;
61038;SDS011;46919;45.816;3.104;2022-11-23T02:44:08;1.35;;;0.60;;
61038;SDS011;46919;45.816;3.104;2022-11-23T02:46:41;1.98;;;0.80;;
61038;SDS011;46919;45.816;3.104;2022-11-23T02:49:07;1.73;;;0.77;;
61038;SDS011;46919;45.816;3.104;2022-11-23T02:51:32;1.98;;;0.90;;
61038;SDS011;46919;45.816;3.104;2022-11-23T02:53:58;1.23;;;0.85;;
61038;SDS011;46919;45.816;3.104;2022-11-23T02:56:23;1.27;;;0.90;;
61038;SDS011;46919;45.816;3.104;2022-11-23T02:58:48;0.73;;;0.30;;
61038;SDS011;46919;45.816;3.104;2022-11-23T03:01:14;0.95;;;0.40;;
61038;SDS011;46919;45.816;3.104;2022-11-23T03:03:39;0.40;;;0.30;;
61038;SDS011;46919;45.816;3.104;2022-11-23T03:06:05;0.50;;;0.30;;
61038;SDS011;46919;45.816;3.104;2022-11-23T03:08:30;0.98;;;0.38;;
61038;SDS011;46919;45.816;3.104;2022-11-23T03:10:55;1.17;;;0.40;;
61038;SDS011;46919;45.816;3.104;2022-11-23T03:13:21;0.57;;;0.30;;
61038;SDS011;46919;45.816;3.104;2022-11-23T03:15:46;0.60;;;0.40;;
61038;SDS011;46919;45.816;3.104;2022-11-23T03:18:12;0.43;;;0.30;;
61038;SDS011;46919;45.816;3.104;2022-11-23T03:20:37;1.33;;;0.45;;
61038;SDS011;46919;45.816;3.104;2022-11-23T03:23:02;0.88;;;0.43;;
61038;SDS011;46919;45.816;3.104;2022-11-23T03:25:28;0.98;;;0.50;;
61038;SDS011;46919;45.816;3.104;2022-11-23T03:27:53;1.30;;;0.68;;
61038;SDS011;46919;45.816;3.104;2022-11-23T03:30:18;1.27;;;0.60;;
61038;SDS011;46919;45.816;3.104;2022-11-23T03:32:44;1.67;;;0.60;;
61038;SDS011;46919;45.816;3.104;2022-11-23T03:35:09;0.98;;;0.60;;
61038;SDS011;46919;45.816;3.104;2022-11-23T03:37:35;1.80;;;0.55;;
61038;SDS011;46919;45.816;3.104;2022-11-23T03:40:00;1.63;;;0.60;;
61038;SDS011;46919;45.816;3.104;2022-11-23T03:42:25;1.08;;;0.50;;
61038;SDS011;46919;45.816;3.104;2022-11-23T03:44:51;1.80;;;0.60;;
61038;SDS011;46919;45.816;3.104;2022-11-23T03:47:16;0.80;;;0.57;;
61038;SDS011;46919;45.816;3.104;2022-11-23T03:49:41;1.17;;;0.60;;
61038;SDS011;46919;45.816;3.104;2022-11-23T03:52:07;0.57;;;0.40;;
61038;SDS011;46919;45.816;3.104;2022-11-23T03:54:32;0.47;;;0.40;;
61038;SDS011;46919;45.816;3.104;2022-11-23T03:56:57;0.45;;;0.35;;
61038;SDS011;46919;45.816;3.104;2022-11-23T03:59:23;1.52;;;0.50;;
61038;SDS011;46919;45.816;3.104;2022-11-23T04:01:48;0.60;;;0.35;;
61038;SDS011;46919;45.816;3.104;2022-11-23T04:04:14;2.00;;;0.30;;
61038;SDS011;46919;45.816;3.104;2022-11-23T04:06:39;2.75;;;0.30;;
61038;SDS011;46919;45.816;3.104;2022-11-23T04:09:04;0.73;;;0.38;;
61038;SDS011;46919;45.816;3.104;2022-11-23T04:11:30;0.85;;;0.30;;
61038;SDS011;46919;45.816;3.104;2022-11-23T04:13:55;0.82;;;0.30;;
61038;SDS011;46919;45.816;3.104;2022-11-23T04:16:20;0.77;;;0.30;;
61038;SDS011;46919;45.816;3.104;2022-11-23T04:18:46;0.70;;;0.47;;
61038;SDS011;46919;45.816;3.104;2022-11-23T04:21:11;0.28;;;0.20;;
61038;SDS011;46919;45.816;3.104;2022-11-23T04:23:36;1.50;;;0.38;;
61038;SDS011;46919;45.816;3.104;2022-11-23T04:26:02;0.50;;;0.40;;
61038;SDS011;46919;45.816;3.104;2022-11-23T04:28:27;2.60;;;0.60;;
61038;SDS011;46919;45.816;3.104;2022-11-23T04:30:53;1.58;;;0.60;;
61038;SDS011;46919;45.816;3.104;2022-11-23T04:33:18;1.10;;;0.77;;
61038;SDS011;46919;45.816;3.104;2022-11-23T04:35:43;0.80;;;0.70;;
61038;SDS011;46919;45.816;3.104;2022-11-23T04:38:09;0.93;;;0.50;;
61038;SDS011;46919;45.816;3.104;2022-11-23T04:40:34;1.95;;;0.45;;
61038;SDS011;46919;45.816;3.104;2022-11-23T04:43:00;0.73;;;0.30;;
61038;SDS011;46919;45.816;3.104;2022-11-23T04:45:25;1.83;;;1.13;;
61038;SDS011;46919;45.816;3.104;2022-11-23T04:47:51;2.03;;;0.47;;
61038;SDS011;46919;45.816;3.104;2022-11-23T04:50:16;1.67;;;0.43;;
61038;SDS011;46919;45.816;3.104;2022-11-23T04:52:41;0.65;;;0.40;;
61038;SDS011;46919;45.816;3.104;2022-11-23T04:55:07;2.15;;;0.40;;
61038;SDS011;46919;45.816;3.104;2022-11-23T04:57:32;0.98;;;0.60;;
61038;SDS011;46919;45.816;3.104;2022-11-23T04:59:58;1.17;;;0.47;;
61038;SDS011;46919;45.816;3.104;2022-11-23T05:02:23;0.98;;;0.40;;
61038;SDS011;46919;45.816;3.104;2022-11-23T05:04:48;1.60;;;0.43;;
61038;SDS011;46919;45.816;3.104;2022-11-23T05:07:14;1.83;;;0.40;;
61038;SDS011;46919;45.816;3.104;2022-11-23T05:09:39;0.50;;;0.30;;
61038;SDS011;46919;45.816;3.104;2022-11-23T05:12:05;1.70;;;0.40;;
61038;SDS011;46919;45.816;3.104;2022-11-23T05:14:30;0.88;;;0.50;;
61038;SDS011;46919;45.816;3.104;2022-11-23T05:16:56;0.93;;;0.40;;
61038;SDS011;46919;45.816;3.104;2022-11-23T05:19:21;2.30;;;0.60;;
61038;SDS011;46919;45.816;3.104;2022-11-23T05:21:46;2.33;;;0.40;;
61038;SDS011;46919;45.816;3.104;2022-11-23T05:24:12;1.90;;;1.20;;
61038;SDS011;46919;45.816;3.104;2022-11-23T05:26:37;6.35;;;3.60;;
61038;SDS011;46919;45.816;3.104;2022-11-23T05:29:02;2.10;;;1.60;;
61038;SDS011;46919;45.816;3.104;2022-11-23T05:31:28;1.92;;;1.25;;
61038;SDS011;46919;45.816;3.104;2022-11-23T05:33:53;1.92;;;0.50;;
61038;SDS011;46919;45.816;3.104;2022-11-23T05:36:18;1.70;;;0.43;;
61038;SDS011;46919;45.816;3.104;2022-11-23T05:38:44;2.75;;;0.50;;
61038;SDS011;46919;45.816;3.104;2022-11-23T05:41:09;0.50;;;0.50;;
61038;SDS011;46919;45.816;3.104;2022-11-23T05:43:34;1.05;;;0.77;;
61038;SDS011;46919;45.816;3.104;2022-11-23T05:46:00;1.75;;;0.50;;
61038;SDS011;46919;45.816;3.104;2022-11-23T05:48:26;1.27;;;0.70;;
61038;SDS011;46919;45.816;3.104;2022-11-23T05:50:52;1.25;;;0.50;;
61038;SDS011;46919;45.816;3.104;2022-11-23T05:53:17;1.02;;;0.75;;
61038;SDS011;46919;45.816;3.104;2022-11-23T05:55:43;1.92;;;0.60;;
61038;SDS011;46919;45.816;3.104;2022-11-23T05:58:08;0.75;;;0.43;;
61038;SDS011;46919;45.816;3.104;2022-11-23T06:00:33;1.13;;;0.50;;
61038;SDS011;46919;45.816;3.104;2022-11-23T06:02:59;1.17;;;0.50;;
61038;SDS011;46919;45.816;3.104;2022-11-23T06:05:26;0.93;;;0.65;;
61038;SDS011;46919;45.816;3.104;2022-11-23T06:07:52;0.85;;;0.52;;
61038;SDS011;46919;45.816;3.104;2022-11-23T06:10:18;1.45;;;0.70;;
61038;SDS011;46919;45.816;3.104;2022-11-23T06:12:43;1.10;;;0.63;;
61038;SDS011;46919;45.816;3.104;2022-11-23T06:15:09;1.38;;;0.50;;
61038;SDS011;46919;45.816;3.104;2022-11-23T06:17:35;0.65;;;0.32;;
61038;SDS011;46919;45.816;3.104;2022-11-23T06:20:00;0.40;;;0.30;;
61038;SDS011;46919;45.816;3.104;2022-11-23T06:22:26;0.50;;;0.35;;
61038;SDS011;46919;45.816;3.104;2022-11-23T06:24:51;1.17;;;0.50;;
61038;SDS011;46919;45.816;3.104;2022-11-23T06:27:17;1.27;;;0.80;;
61038;SDS011;46919;45.816;3.104;2022-11-23T06:29:42;1.13;;;0.70;;
61038;SDS011;46919;45.816;3.104;2022-11-23T06:32:08;0.90;;;0.60;;
61038;SDS011;46919;45.816;3.104;2022-11-23T06:34:33;1.15;;;0.70;;
61038;SDS011;46919;45.816;3.104;2022-11-23T06:36:58;0.95;;;0.63;;
61038;SDS011;46919;45.816;3.104;2022-11-23T06:39:24;0.80;;;0.70;;
61038;SDS011;46919;45.816;3.104;2022-11-23T06:41:49;1.35;;;0.80;;
61038;SDS011;46919;45.816;3.104;2022-11-23T06:44:14;1.95;;;1.00;;
61038;SDS011;46919;45.816;3.104;2022-11-23T06:46:40;2.28;;;1.17;;
61038;SDS011;46919;45.816;3.104;2022-11-23T06:49:05;2.35;;;1.50;;
61038;SDS011;46919;45.816;3.104;2022-11-23T06:51:31;22.50;;;13.02;;
61038;SDS011;46919;45.816;3.104;2022-11-23T06:53:56;39.13;;;23.05;;
61038;SDS011;46919;45.816;3.104;2022-11-23T06:56:21;11.20;;;6.80;;
61038;SDS011;46919;45.816;3.104;2022-11-23T06:58:47;6.95;;;4.07;;
61038;SDS011;46919;45.816;3.104;2022-11-23T07:01:12;6.22;;;3.40;;
61038;SDS011;46919;45.816;3.104;2022-11-23T07:03:38;3.80;;;2.58;;
61038;SDS011;46919;45.816;3.104;2022-11-23T07:06:07;5.60;;;4.10;;
61038;SDS011;46919;45.816;3.104;2022-11-23T07:08:34;6.38;;;3.97;;
61038;SDS011;46919;45.816;3.104;2022-11-23T07:11:01;4.80;;;3.47;;
61038;SDS011;46919;45.816;3.104;2022-11-23T07:13:27;5.75;;;4.65;;
61038;SDS011;46919;45.816;3.104;2022-11-23T07:15:53;4.90;;;3.80;;
61038;SDS011;46919;45.816;3.104;2022-11-23T07:18:18;5.75;;;4.32;;
61038;SDS011;46919;45.816;3.104;2022-11-23T07:20:43;8.32;;;5.70;;
61038;SDS011;46919;45.816;3.104;2022-11-23T07:23:09;7.55;;;4.53;;
61038;SDS011;46919;45.816;3.104;2022-11-23T07:25:36;8.38;;;4.90;;
61038;SDS011;46919;45.816;3.104;2022-11-23T07:28:02;6.07;;;3.83;;
61038;SDS011;46919;45.816;3.104;2022-11-23T07:30:30;3.42;;;2.60;;
61038;SDS011;46919;45.816;3.104;2022-11-23T07:33:00;6.00;;;3.83;;
61038;SDS011;46919;45.816;3.104;2022-11-23T07:35:26;6.13;;;4.38;;
61038;SDS011;46919;45.816;3.104;2022-11-23T07:37:52;4.07;;;3.17;;
61038;SDS011;46919;45.816;3.104;2022-11-23T07:40:17;4.63;;;3.15;;
61038;SDS011;46919;45.816;3.104;2022-11-23T07:42:43;6.75;;;3.53;;
61038;SDS011;46919;45.816;3.104;2022-11-23T07:45:08;8.00;;;5.10;;
61038;SDS011;46919;45.816;3.104;2022-11-23T07:47:35;7.30;;;5.10;;
61038;SDS011;46919;45.816;3.104;2022-11-23T07:50:01;8.45;;;4.75;;
61038;SDS011;46919;45.816;3.104;2022-11-23T07:52:27;6.30;;;4.63;;
61038;SDS011;46919;45.816;3.104;2022-11-23T07:54:52;13.45;;;7.55;;
61038;SDS011;46919;45.816;3.104;2022-11-23T07:57:17;9.00;;;6.40;;
61038;SDS011;46919;45.816;3.104;2022-11-23T07:59:43;10.38;;;6.32;;
61038;SDS011;46919;45.816;3.104;2022-11-23T08:02:09;11.95;;;7.55;;
61038;SDS011;46919;45.816;3.104;2022-11-23T08:04:36;13.23;;;8.85;;
61038;SDS011;46919;45.816;3.104;2022-11-23T08:07:01;12.48;;;7.70;;
61038;SDS011;46919;45.816;3.104;2022-11-23T08:09:27;10.85;;;7.18;;
61038;SDS011;46919;45.816;3.104;2022-11-23T08:11:53;12.13;;;7.35;;
61038;SDS011;46919;45.816;3.104;2022-11-23T08:14:18;6.68;;;5.47;;
61038;SDS011;46919;45.816;3.104;2022-11-23T08:16:47;11.60;;;6.97;;
61038;SDS011;46919;45.816;3.104;2022-11-23T08:19:13;9.65;;;6.03;;
61038;SDS011;46919;45.816;3.104;2022-11-23T08:21:39;7.85;;;4.30;;
61038;SDS011;46919;45.816;3.104;2022-11-23T08:24:04;7.70;;;5.68;;
61038;SDS011;46919;45.816;3.104;2022-11-23T08:26:30;8.27;;;4.85;;
61038;SDS011;46919;45.816;3.104;2022-11-23T08:28:55;6.05;;;3.80;;
61038;SDS011;46919;45.816;3.104;2022-11-23T08:31:21;5.28;;;3.80;;
61038;SDS011;46919;45.816;3.104;2022-11-23T08:33:46;6.95;;;5.00;;
61038;SDS011;46919;45.816;3.104;2022-11-23T08:36:12;8.10;;;6.13;;
61038;SDS011;46919;45.816;3.104;2022-11-23T08:38:37;12.68;;;9.45;;
61038;SDS011;46919;45.816;3.104;2022-11-23T08:41:03;11.15;;;7.75;;
61038;SDS011;46919;45.816;3.104;2022-11-23T08:43:29;12.45;;;6.88;;
61038;SDS011;46919;45.816;3.104;2022-11-23T08:45:58;11.32;;;7.68;;
61038;SDS011;46919;45.816;3.104;2022-11-23T08:48:24;26.13;;;14.27;;
61038;SDS011;46919;45.816;3.104;2022-11-23T08:50:50;15.48;;;9.60;;
61038;SDS011;46919;45.816;3.104;2022-11-23T08:53:15;7.28;;;5.15;;
61038;SDS011;46919;45.816;3.104;2022-11-23T08:55:41;12.27;;;6.97;;
61038;SDS011;46919;45.816;3.104;2022-11-23T08:58:07;13.40;;;7.63;;
61038;SDS011;46919;45.816;3.104;2022-11-23T09:00:33;12.60;;;6.22;;
61038;SDS011;46919;45.816;3.104;2022-11-23T09:02:59;3.88;;;3.05;;
61038;SDS011;46919;45.816;3.104;2022-11-23T09:05:26;8.18;;;5.30;;
61038;SDS011;46919;45.816;3.104;2022-11-23T09:07:53;6.35;;;4.60;;
61038;SDS011;46919;45.816;3.104;2022-11-23T09:10:19;8.60;;;7.32;;
61038;SDS011;46919;45.816;3.104;2022-11-23T09:12:45;9.63;;;5.53;;
61038;SDS011;46919;45.816;3.104;2022-11-23T09:15:11;7.30;;;4.00;;
61038;SDS011;46919;45.816;3.104;2022-11-23T09:17:37;7.00;;;4.43;;
61038;SDS011;46919;45.816;3.104;2022-11-23T09:20:02;12.00;;;7.80;;
61038;SDS011;46919;45.816;3.104;2022-11-23T09:22:28;9.98;;;6.07;;
61038;SDS011;46919;45.816;3.104;2022-11-23T09:24:53;10.07;;;4.50;;
61038;SDS011;46919;45.816;3.104;2022-11-23T09:27:18;7.32;;;5.28;;
61038;SDS011;46919;45.816;3.104;2022-11-23T09:29:44;7.22;;;4.72;;
61038;SDS011;46919;45.816;3.104;2022-11-23T09:32:09;5.53;;;4.10;;
61038;SDS011;46919;45.816;3.104;2022-11-23T09:34:35;6.57;;;4.75;;
61038;SDS011;46919;45.816;3.104;2022-11-23T09:37:00;14.68;;;13.18;;
61038;SDS011;46919;45.816;3.104;2022-11-23T09:39:26;9.60;;;6.75;;
61038;SDS011;46919;45.816;3.104;2022-11-23T09:44:34;7.95;;;5.60;;
61038;SDS011;46919;45.816;3.104;2022-11-23T09:52:52;10.45;;;8.55;;
61038;SDS011;46919;45.816;3.104;2022-11-23T09:55:20;15.48;;;9.45;;
61038;SDS011;46919;45.816;3.104;2022-11-23T09:57:58;5.78;;;3.90;;
61038;SDS011;46919;45.816;3.104;2022-11-23T10:00:29;4.72;;;3.50;;
61038;SDS011;46919;45.816;3.104;2022-11-23T10:02:59;6.20;;;3.75;;
61038;SDS011;46919;45.816;3.104;2022-11-23T10:05:25;4.50;;;3.70;;
61038;SDS011;46919;45.816;3.104;2022-11-23T10:13:44;4.13;;;3.17;;
61038;SDS011;46919;45.816;3.104;2022-11-23T10:24:30;3.92;;;2.40;;
61038;SDS011;46919;45.816;3.104;2022-11-23T10:27:01;6.32;;;2.90;;
61038;SDS011;46919;45.816;3.104;2022-11-23T10:29:37;3.70;;;2.25;;
61038;SDS011;46919;45.816;3.104;2022-11-23T10:32:04;3.58;;;2.10;;
61038;SDS011;46919;45.816;3.104;2022-11-23T10:34:41;2.60;;;1.80;;
61038;SDS011;46919;45.816;3.104;2022-11-23T10:37:20;4.18;;;1.50;;
61038;SDS011;46919;45.816;3.104;2022-11-23T10:39:46;4.05;;;1.70;;
61038;SDS011;46919;45.816;3.104;2022-11-23T10:42:25;3.08;;;1.83;;
61038;SDS011;46919;45.816;3.104;2022-11-23T10:44:55;2.15;;;0.98;;
61038;SDS011;46919;45.816;3.104;2022-11-23T10:47:47;3.17;;;1.27;;
61038;SDS011;46919;45.816;3.104;2022-11-23T10:50:37;5.28;;;1.38;;
61038;SDS011;46919;45.816;3.104;2022-11-23T10:53:22;3.22;;;1.40;;
61038;SDS011;46919;45.816;3.104;2022-11-23T10:55:53;5.07;;;2.97;;
61038;SDS011;46919;45.816;3.104;2022-11-23T11:00:57;1.58;;;0.90;;
61038;SDS011;46919;45.816;3.104;2022-11-23T11:03:29;3.20;;;1.30;;
61038;SDS011;46919;45.816;3.104;2022-11-23T11:05:57;1.58;;;0.90;;
61038;SDS011;46919;45.816;3.104;2022-11-23T11:08:24;1.70;;;0.90;;
61038;SDS011;46919;45.816;3.104;2022-11-23T11:16:20;1.85;;;0.90;;
61038;SDS011;46919;45.816;3.104;2022-11-23T11:18:56;3.25;;;1.52;;
61038;SDS011;46919;45.816;3.104;2022-11-23T11:21:22;3.15;;;2.22;;
61038;SDS011;46919;45.816;3.104;2022-11-23T11:24:05;5.72;;;3.13;;
61038;SDS011;46919;45.816;3.104;2022-11-23T11:26:49;5.05;;;3.30;;
61038;SDS011;46919;45.816;3.104;2022-11-23T11:32:24;8.20;;;3.95;;
61038;SDS011;46919;45.816;3.104;2022-11-23T11:35:26;6.03;;;3.88;;
61038;SDS011;46919;45.816;3.104;2022-11-23T11:37:49;5.57;;;3.45;;
61038;SDS011;46919;45.816;3.104;2022-11-23T11:45:43;3.10;;;1.75;;
61038;SDS011;46919;45.816;3.104;2022-11-23T11:48:44;3.47;;;2.15;;
61038;SDS011;46919;45.816;3.104;2022-11-23T11:51:06;4.50;;;1.50;;
61038;SDS011;46919;45.816;3.104;2022-11-23T11:53:40;1.23;;;0.70;;
61038;SDS011;46919;45.816;3.104;2022-11-23T11:56:21;0.47;;;0.47;;
61038;SDS011;46919;45.816;3.104;2022-11-23T11:58:58;0.70;;;0.50;;
61038;SDS011;46919;45.816;3.104;2022-11-23T12:01:39;0.98;;;0.40;;
61038;SDS011;46919;45.816;3.104;2022-11-23T12:07:26;1.55;;;0.30;;
61038;SDS011;46919;45.816;3.104;2022-11-23T12:10:16;1.38;;;0.10;;
61038;SDS011;46919;45.816;3.104;2022-11-23T12:12:42;0.10;;;0.10;;
61038;SDS011;46919;45.816;3.104;2022-11-23T12:15:15;0.45;;;0.20;;
61038;SDS011;46919;45.816;3.104;2022-11-23T12:31:50;0.17;;;0.10;;
61038;SDS011;46919;45.816;3.104;2022-11-23T12:42:43;0.30;;;0.10;;
61038;SDS011;46919;45.816;3.104;2022-11-23T12:48:11;1.20;;;0.90;;
61038;SDS011;46919;45.816;3.104;2022-11-23T12:50:57;0.70;;;0.25;;
61038;SDS011;46919;45.816;3.104;2022-11-23T12:53:47;3.10;;;0.40;;
61038;SDS011;46919;45.816;3.104;2022-11-23T12:56:19;3.47;;;0.60;;
61038;SDS011;46919;45.816;3.104;2022-11-23T12:59:15;3.00;;;0.52;;
61038;SDS011;46919;45.816;3.104;2022-11-23T13:01:47;4.60;;;0.60;;
61038;SDS011;46919;45.816;3.104;2022-11-23T13:07:17;3.38;;;0.70;;
61038;SDS011;46919;45.816;3.104;2022-11-23T13:12:44;4.45;;;0.63;;
61038;SDS011;46919;45.816;3.104;2022-11-23T13:15:40;4.40;;;0.68;;
61038;SDS011;46919;45.816;3.104;2022-11-23T13:21:17;6.47;;;0.70;;
61038;SDS011;46919;45.816;3.104;2022-11-23T13:23:48;2.65;;;0.65;;
61038;SDS011;46919;45.816;3.104;2022-11-23T13:28:40;2.38;;;0.70;;
61038;SDS011;46919;45.816;3.104;2022-11-23T13:33:51;4.55;;;0.60;;
61038;SDS011;46919;45.816;3.104;2022-11-23T13:38:53;3.85;;;0.50;;
61038;SDS011;46919;45.816;3.104;2022-11-23T13:44:18;3.05;;;0.75;;
61038;SDS011;46919;45.816;3.104;2022-11-23T13:49:30;3.58;;;0.88;;
61038;SDS011;46919;45.816;3.104;2022-11-23T13:54:53;3.65;;;0.75;;
61038;SDS011;46919;45.816;3.104;2022-11-23T13:57:35;5.90;;;0.80;;
61038;SDS011;46919;45.816;3.104;2022-11-23T14:14:27;5.53;;;0.85;;
61038;SDS011;46919;45.816;3.104;2022-11-23T14:17:16;4.75;;;1.00;;
61038;SDS011;46919;45.816;3.104;2022-11-23T14:23:06;7.55;;;1.80;;
61038;SDS011;46919;45.816;3.104;2022-11-23T14:26:54;9.50;;;1.83;;
61038;SDS011;46919;45.816;3.104;2022-11-23T14:31:45;11.50;;;1.60;;
61038;SDS011;46919;45.816;3.104;2022-11-23T14:43:01;12.18;;;1.92;;
61038;SDS011;46919;45.816;3.104;2022-11-23T14:45:29;8.65;;;2.08;;
61038;SDS011;46919;45.816;3.104;2022-11-23T14:48:18;11.23;;;1.95;;
61038;SDS011;46919;45.816;3.104;2022-11-23T14:51:05;13.10;;;2.33;;
61038;SDS011;46919;45.816;3.104;2022-11-23T14:53:40;13.45;;;1.98;;
61038;SDS011;46919;45.816;3.104;2022-11-23T15:01:56;16.00;;;2.85;;
61038;SDS011;46919;45.816;3.104;2022-11-23T15:04:29;11.75;;;2.25;;
61038;SDS011;46919;45.816;3.104;2022-11-23T15:07:20;14.77;;;2.28;;
61038;SDS011;46919;45.816;3.104;2022-11-23T15:09:49;16.02;;;1.95;;
61038;SDS011;46919;45.816;3.104;2022-11-23T15:14:50;14.40;;;2.30;;
61038;SDS011;46919;45.816;3.104;2022-11-23T15:17:18;15.07;;;2.70;;
61038;SDS011;46919;45.816;3.104;2022-11-23T15:19:54;15.50;;;2.60;;
61038;SDS011;46919;45.816;3.104;2022-11-23T15:22:24;13.02;;;2.60;;
61038;SDS011;46919;45.816;3.104;2022-11-23T15:24:51;11.55;;;2.30;;
61038;SDS011;46919;45.816;3.104;2022-11-23T15:27:26;16.42;;;2.30;;
61038;SDS011;46919;45.816;3.104;2022-11-23T15:29:53;13.27;;;3.20;;
61038;SDS011;46919;45.816;3.104;2022-11-23T15:34:56;7.95;;;2.00;;
61038;SDS011;46919;45.816;3.104;2022-11-23T15:37:24;8.43;;;1.95;;
61038;SDS011;46919;45.816;3.104;2022-11-23T15:39:51;15.00;;;2.63;;
61038;SDS011;46919;45.816;3.104;2022-11-23T15:42:19;36.88;;;11.63;;
61038;SDS011;46919;45.816;3.104;2022-11-23T15:44:46;10.02;;;1.90;;
61038;SDS011;46919;45.816;3.104;2022-11-23T15:47:13;9.30;;;1.80;;
61038;SDS011;46919;45.816;3.104;2022-11-23T15:49:44;10.45;;;1.38;;
61038;SDS011;46919;45.816;3.104;2022-11-23T15:52:12;11.30;;;1.67;;
61038;SDS011;46919;45.816;3.104;2022-11-23T15:54:39;9.55;;;1.40;;
61038;SDS011;46919;45.816;3.104;2022-11-23T15:57:05;10.20;;;2.05;;
61038;SDS011;46919;45.816;3.104;2022-11-23T15:59:41;12.70;;;2.28;;
61038;SDS011;46919;45.816;3.104;2022-11-23T16:02:28;9.00;;;1.63;;
61038;SDS011;46919;45.816;3.104;2022-11-23T16:05:29;8.73;;;1.50;;
61038;SDS011;46919;45.816;3.104;2022-11-23T16:07:54;8.90;;;1.35;;
61038;SDS011;46919;45.816;3.104;2022-11-23T16:12:51;11.57;;;2.08;;
61038;SDS011;46919;45.816;3.104;2022-11-23T16:18:02;11.27;;;1.77;;
61038;SDS011;46919;45.816;3.104;2022-11-23T16:20:30;13.35;;;1.95;;
61038;SDS011;46919;45.816;3.104;2022-11-23T16:22:56;10.57;;;1.92;;
61038;SDS011;46919;45.816;3.104;2022-11-23T16:25:33;15.60;;;1.98;;
61038;SDS011;46919;45.816;3.104;2022-11-23T16:28:00;12.55;;;2.28;;
61038;SDS011;46919;45.816;3.104;2022-11-23T16:30:40;7.68;;;1.63;;
61038;SDS011;46919;45.816;3.104;2022-11-23T16:33:14;10.13;;;2.25;;
61038;SDS011;46919;45.816;3.104;2022-11-23T16:35:41;13.40;;;1.88;;
61038;SDS011;46919;45.816;3.104;2022-11-23T16:38:06;14.55;;;2.47;;
61038;SDS011;46919;45.816;3.104;2022-11-23T16:40:32;8.10;;;1.63;;
61038;SDS011;46919;45.816;3.104;2022-11-23T16:42:57;11.18;;;1.77;;
61038;SDS011;46919;45.816;3.104;2022-11-23T16:45:23;12.75;;;2.65;;
61038;SDS011;46919;45.816;3.104;2022-11-23T16:47:59;10.55;;;2.42;;
61038;SDS011;46919;45.816;3.104;2022-11-23T16:50:27;9.57;;;1.85;;
61038;SDS011;46919;45.816;3.104;2022-11-23T16:52:54;13.18;;;1.95;;
61038;SDS011;46919;45.816;3.104;2022-11-23T16:55:20;12.05;;;3.88;;
61038;SDS011;46919;45.816;3.104;2022-11-23T16:57:45;17.63;;;2.35;;
61038;SDS011;46919;45.816;3.104;2022-11-23T17:00:21;9.77;;;1.95;;
61038;SDS011;46919;45.816;3.104;2022-11-23T17:02:47;7.88;;;2.05;;
61038;SDS011;46919;45.816;3.104;2022-11-23T17:05:13;10.82;;;1.70;;
61038;SDS011;46919;45.816;3.104;2022-11-23T17:07:39;11.70;;;2.10;;
61038;SDS011;46919;45.816;3.104;2022-11-23T17:10:04;8.70;;;2.08;;
61038;SDS011;46919;45.816;3.104;2022-11-23T17:12:30;9.02;;;1.80;;
61038;SDS011;46919;45.816;3.104;2022-11-23T17:14:55;11.40;;;1.80;;
61038;SDS011;46919;45.816;3.104;2022-11-23T17:17:23;9.23;;;2.15;;
61038;SDS011;46919;45.816;3.104;2022-11-23T17:19:48;10.55;;;2.05;;
61038;SDS011;46919;45.816;3.104;2022-11-23T17:22:18;12.25;;;2.00;;